METAR Data
IDs: Format: Raw Decoded Include TAF

Data at: 0203 UTC 01 Mar 2021

LTFM 010150Z 21005KT 190V250 CAVOK 04/02 Q1027 NOSIG RMK RWY17L 21004KT RWY34L 22005KT RWY16R 23006KT RWY36 19005KT RWY18 19007KT